sensor_id;sensor_type;location;lat;lon;timestamp;temperature;humidity
19972;DHT22;10147;16.402;102.848;2023-05-02T00:00:15;27.70;99.90
19972;DHT22;10147;16.402;102.848;2023-05-02T00:02:45;27.70;99.90
19972;DHT22;10147;16.402;102.848;2023-05-02T00:05:16;27.70;99.90
19972;DHT22;10147;16.402;102.848;2023-05-02T00:07:46;27.80;99.90
19972;DHT22;10147;16.402;102.848;2023-05-02T00:10:17;27.80;99.90
19972;DHT22;10147;16.402;102.848;2023-05-02T00:12:46;27.80;99.90
19972;DHT22;10147;16.402;102.848;2023-05-02T00:15:17;27.90;99.90
19972;DHT22;10147;16.402;102.848;2023-05-02T00:17:46;28.00;99.90
19972;DHT22;10147;16.402;102.848;2023-05-02T00:20:18;28.10;99.90
19972;DHT22;10147;16.402;102.848;2023-05-02T00:22:47;28.10;99.90
19972;DHT22;10147;16.402;102.848;2023-05-02T00:25:17;28.20;99.90
19972;DHT22;10147;16.402;102.848;2023-05-02T00:27:47;28.30;99.90
19972;DHT22;10147;16.402;102.848;2023-05-02T00:30:19;28.30;99.90
19972;DHT22;10147;16.402;102.848;2023-05-02T00:32:49;28.40;99.90
19972;DHT22;10147;16.402;102.848;2023-05-02T00:35:19;28.50;99.90
19972;DHT22;10147;16.402;102.848;2023-05-02T00:37:48;28.60;99.90
19972;DHT22;10147;16.402;102.848;2023-05-02T00:40:18;28.60;99.90
19972;DHT22;10147;16.402;102.848;2023-05-02T00:42:49;28.60;99.90
19972;DHT22;10147;16.402;102.848;2023-05-02T00:45:19;28.70;99.90
19972;DHT22;10147;16.402;102.848;2023-05-02T00:47:49;28.80;99.90
19972;DHT22;10147;16.402;102.848;2023-05-02T00:50:19;28.90;99.90
19972;DHT22;10147;16.402;102.848;2023-05-02T00:52:49;28.90;99.90
19972;DHT22;10147;16.402;102.848;2023-05-02T00:55:19;29.00;99.90
19972;DHT22;10147;16.402;102.848;2023-05-02T00:57:49;29.10;99.90
19972;DHT22;10147;16.402;102.848;2023-05-02T01:00:19;29.10;99.90
19972;DHT22;10147;16.402;102.848;2023-05-02T01:02:58;29.20;99.90
19972;DHT22;10147;16.402;102.848;2023-05-02T01:05:47;29.30;99.90
19972;DHT22;10147;16.402;102.848;2023-05-02T01:08:28;29.50;99.90
19972;DHT22;10147;16.402;102.848;2023-05-02T01:11:31;29.60;99.90
19972;DHT22;10147;16.402;102.848;2023-05-02T01:14:05;29.60;99.90
19972;DHT22;10147;16.402;102.848;2023-05-02T01:16:39;29.70;99.90
19972;DHT22;10147;16.402;102.848;2023-05-02T01:22:10;29.90;99.90
19972;DHT22;10147;16.402;102.848;2023-05-02T01:24:59;30.00;99.90
19972;DHT22;10147;16.402;102.848;2023-05-02T01:30:42;30.10;99.90
19972;DHT22;10147;16.402;102.848;2023-05-02T01:33:16;30.30;99.90
19972;DHT22;10147;16.402;102.848;2023-05-02T01:35:50;30.40;99.90
19972;DHT22;10147;16.402;102.848;2023-05-02T01:38:25;30.50;99.90
19972;DHT22;10147;16.402;102.848;2023-05-02T01:40:57;30.50;99.90
19972;DHT22;10147;16.402;102.848;2023-05-02T01:43:32;30.60;99.90
19972;DHT22;10147;16.402;102.848;2023-05-02T01:46:04;30.70;99.90
19972;DHT22;10147;16.402;102.848;2023-05-02T01:48:36;30.80;99.90
19972;DHT22;10147;16.402;102.848;2023-05-02T01:51:06;30.80;99.90
19972;DHT22;10147;16.402;102.848;2023-05-02T01:53:38;30.90;99.90
19972;DHT22;10147;16.402;102.848;2023-05-02T01:56:08;30.90;99.90
19972;DHT22;10147;16.402;102.848;2023-05-02T01:58:39;31.00;99.90
19972;DHT22;10147;16.402;102.848;2023-05-02T02:01:10;31.20;99.90
19972;DHT22;10147;16.402;102.848;2023-05-02T02:03:42;31.20;99.90
19972;DHT22;10147;16.402;102.848;2023-05-02T02:06:13;31.20;99.90
19972;DHT22;10147;16.402;102.848;2023-05-02T02:08:44;31.20;99.90
19972;DHT22;10147;16.402;102.848;2023-05-02T02:11:18;31.30;99.90
19972;DHT22;10147;16.402;102.848;2023-05-02T02:13:59;31.50;99.90
19972;DHT22;10147;16.402;102.848;2023-05-02T02:16:33;31.60;99.90
19972;DHT22;10147;16.402;102.848;2023-05-02T02:19:07;31.70;99.90
19972;DHT22;10147;16.402;102.848;2023-05-02T02:21:43;31.70;99.90
19972;DHT22;10147;16.402;102.848;2023-05-02T02:24:17;31.70;99.90
19972;DHT22;10147;16.402;102.848;2023-05-02T02:26:50;31.90;99.90
19972;DHT22;10147;16.402;102.848;2023-05-02T02:29:20;32.00;99.90
19972;DHT22;10147;16.402;102.848;2023-05-02T02:31:50;32.10;99.90
19972;DHT22;10147;16.402;102.848;2023-05-02T02:34:20;32.20;99.90
19972;DHT22;10147;16.402;102.848;2023-05-02T02:37:00;32.30;99.90
19972;DHT22;10147;16.402;102.848;2023-05-02T02:39:59;32.50;99.90
19972;DHT22;10147;16.402;102.848;2023-05-02T02:45:43;32.60;99.90
19972;DHT22;10147;16.402;102.848;2023-05-02T02:51:49;32.70;99.90
19972;DHT22;10147;16.402;102.848;2023-05-02T02:55:03;32.80;99.90
19972;DHT22;10147;16.402;102.848;2023-05-02T02:57:40;32.90;99.90
19972;DHT22;10147;16.402;102.848;2023-05-02T03:00:18;32.90;99.90
19972;DHT22;10147;16.402;102.848;2023-05-02T03:02:49;33.00;99.90
19972;DHT22;10147;16.402;102.848;2023-05-02T03:05:22;33.30;99.90
19972;DHT22;10147;16.402;102.848;2023-05-02T03:07:52;33.30;99.90
19972;DHT22;10147;16.402;102.848;2023-05-02T03:10:22;33.40;99.90
19972;DHT22;10147;16.402;102.848;2023-05-02T03:12:52;33.40;99.90
19972;DHT22;10147;16.402;102.848;2023-05-02T03:18:34;33.60;99.90
19972;DHT22;10147;16.402;102.848;2023-05-02T03:21:03;33.70;99.90
19972;DHT22;10147;16.402;102.848;2023-05-02T03:23:35;33.70;99.90
19972;DHT22;10147;16.402;102.848;2023-05-02T03:26:05;33.90;99.90
19972;DHT22;10147;16.402;102.848;2023-05-02T03:28:36;34.10;99.90
19972;DHT22;10147;16.402;102.848;2023-05-02T03:31:06;34.00;99.90
19972;DHT22;10147;16.402;102.848;2023-05-02T03:33:39;33.90;99.90
19972;DHT22;10147;16.402;102.848;2023-05-02T03:36:09;33.90;99.90
19972;DHT22;10147;16.402;102.848;2023-05-02T03:38:39;34.00;99.90
19972;DHT22;10147;16.402;102.848;2023-05-02T03:41:12;34.20;99.90
19972;DHT22;10147;16.402;102.848;2023-05-02T03:43:44;34.20;99.90
19972;DHT22;10147;16.402;102.848;2023-05-02T03:46:14;34.30;99.90
19972;DHT22;10147;16.402;102.848;2023-05-02T03:48:45;34.30;99.90
19972;DHT22;10147;16.402;102.848;2023-05-02T03:51:14;34.30;99.90
19972;DHT22;10147;16.402;102.848;2023-05-02T03:53:49;34.30;99.90
19972;DHT22;10147;16.402;102.848;2023-05-02T03:56:19;34.30;99.90
19972;DHT22;10147;16.402;102.848;2023-05-02T03:58:59;34.70;99.90
19972;DHT22;10147;16.402;102.848;2023-05-02T04:01:30;35.00;99.90
19972;DHT22;10147;16.402;102.848;2023-05-02T04:04:01;35.20;99.90
19972;DHT22;10147;16.402;102.848;2023-05-02T04:06:36;35.10;99.90
19972;DHT22;10147;16.402;102.848;2023-05-02T04:09:08;35.10;99.90
19972;DHT22;10147;16.402;102.848;2023-05-02T04:11:51;35.30;99.90
19972;DHT22;10147;16.402;102.848;2023-05-02T04:14:22;35.30;99.90
19972;DHT22;10147;16.402;102.848;2023-05-02T04:16:54;35.50;99.90
19972;DHT22;10147;16.402;102.848;2023-05-02T04:19:33;35.60;99.90
19972;DHT22;10147;16.402;102.848;2023-05-02T04:22:04;35.50;99.90
19972;DHT22;10147;16.402;102.848;2023-05-02T04:24:38;35.50;99.90
19972;DHT22;10147;16.402;102.848;2023-05-02T04:27:08;35.50;99.90
19972;DHT22;10147;16.402;102.848;2023-05-02T04:29:42;35.60;99.90
19972;DHT22;10147;16.402;102.848;2023-05-02T04:32:15;35.70;99.90
19972;DHT22;10147;16.402;102.848;2023-05-02T04:34:47;35.70;99.90
19972;DHT22;10147;16.402;102.848;2023-05-02T04:37:17;35.80;99.90
19972;DHT22;10147;16.402;102.848;2023-05-02T04:39:48;35.90;99.90
19972;DHT22;10147;16.402;102.848;2023-05-02T04:42:23;36.00;99.90
19972;DHT22;10147;16.402;102.848;2023-05-02T04:45:13;36.20;99.90
19972;DHT22;10147;16.402;102.848;2023-05-02T04:47:44;36.40;99.90
19972;DHT22;10147;16.402;102.848;2023-05-02T04:50:15;36.40;99.90
19972;DHT22;10147;16.402;102.848;2023-05-02T04:52:45;36.40;99.90
19972;DHT22;10147;16.402;102.848;2023-05-02T04:55:15;36.60;99.90
19972;DHT22;10147;16.402;102.848;2023-05-02T04:57:45;36.50;99.90
19972;DHT22;10147;16.402;102.848;2023-05-02T05:00:17;36.50;99.90
19972;DHT22;10147;16.402;102.848;2023-05-02T05:02:47;36.20;99.90
19972;DHT22;10147;16.402;102.848;2023-05-02T05:05:20;36.40;99.90
19972;DHT22;10147;16.402;102.848;2023-05-02T05:07:50;36.40;99.90
19972;DHT22;10147;16.402;102.848;2023-05-02T05:10:23;36.60;99.90
19972;DHT22;10147;16.402;102.848;2023-05-02T05:12:53;36.60;99.90
19972;DHT22;10147;16.402;102.848;2023-05-02T05:15:23;36.60;99.90
19972;DHT22;10147;16.402;102.848;2023-05-02T05:17:57;36.90;99.90
19972;DHT22;10147;16.402;102.848;2023-05-02T05:20:28;37.00;99.90
19972;DHT22;10147;16.402;102.848;2023-05-02T05:23:00;37.10;99.90
19972;DHT22;10147;16.402;102.848;2023-05-02T05:25:30;36.70;99.90
19972;DHT22;10147;16.402;102.848;2023-05-02T05:28:03;37.10;99.90
19972;DHT22;10147;16.402;102.848;2023-05-02T05:30:35;37.00;99.90
19972;DHT22;10147;16.402;102.848;2023-05-02T05:33:09;36.70;99.90
19972;DHT22;10147;16.402;102.848;2023-05-02T05:35:39;36.30;99.90
19972;DHT22;10147;16.402;102.848;2023-05-02T05:38:09;36.20;99.90
19972;DHT22;10147;16.402;102.848;2023-05-02T05:40:42;36.10;99.90
19972;DHT22;10147;16.402;102.848;2023-05-02T05:43:12;36.00;99.90
19972;DHT22;10147;16.402;102.848;2023-05-02T05:45:44;36.00;99.90
19972;DHT22;10147;16.402;102.848;2023-05-02T05:48:14;36.20;99.90
19972;DHT22;10147;16.402;102.848;2023-05-02T05:50:46;36.50;99.90
19972;DHT22;10147;16.402;102.848;2023-05-02T05:53:16;36.70;99.90
19972;DHT22;10147;16.402;102.848;2023-05-02T05:55:48;36.80;99.90
19972;DHT22;10147;16.402;102.848;2023-05-02T05:58:19;37.00;99.90
19972;DHT22;10147;16.402;102.848;2023-05-02T06:00:50;37.20;99.90
19972;DHT22;10147;16.402;102.848;2023-05-02T06:03:20;37.20;99.90
19972;DHT22;10147;16.402;102.848;2023-05-02T06:05:53;37.20;99.90
19972;DHT22;10147;16.402;102.848;2023-05-02T06:08:22;37.30;99.90
19972;DHT22;10147;16.402;102.848;2023-05-02T06:10:53;37.50;99.90
19972;DHT22;10147;16.402;102.848;2023-05-02T06:13:23;37.50;99.90
19972;DHT22;10147;16.402;102.848;2023-05-02T06:15:53;37.60;99.90
19972;DHT22;10147;16.402;102.848;2023-05-02T06:18:23;37.60;99.90
19972;DHT22;10147;16.402;102.848;2023-05-02T06:20:53;37.60;99.90
19972;DHT22;10147;16.402;102.848;2023-05-02T06:23:23;37.80;99.90
19972;DHT22;10147;16.402;102.848;2023-05-02T06:25:54;37.50;99.90
19972;DHT22;10147;16.402;102.848;2023-05-02T06:28:27;37.20;99.90
19972;DHT22;10147;16.402;102.848;2023-05-02T06:31:00;37.40;99.90
19972;DHT22;10147;16.402;102.848;2023-05-02T06:33:35;37.50;99.90
19972;DHT22;10147;16.402;102.848;2023-05-02T06:36:05;37.80;99.90
19972;DHT22;10147;16.402;102.848;2023-05-02T06:38:35;37.80;99.90
19972;DHT22;10147;16.402;102.848;2023-05-02T06:41:05;37.90;99.90
19972;DHT22;10147;16.402;102.848;2023-05-02T06:43:35;37.60;99.90
19972;DHT22;10147;16.402;102.848;2023-05-02T06:46:05;37.80;99.90
19972;DHT22;10147;16.402;102.848;2023-05-02T06:48:37;37.90;99.90
19972;DHT22;10147;16.402;102.848;2023-05-02T06:51:08;38.00;99.90
19972;DHT22;10147;16.402;102.848;2023-05-02T06:53:37;37.90;99.90
19972;DHT22;10147;16.402;102.848;2023-05-02T06:56:07;38.20;99.90
19972;DHT22;10147;16.402;102.848;2023-05-02T06:58:37;38.10;99.90
19972;DHT22;10147;16.402;102.848;2023-05-02T07:01:07;38.20;99.90
19972;DHT22;10147;16.402;102.848;2023-05-02T07:03:37;38.20;99.90
19972;DHT22;10147;16.402;102.848;2023-05-02T07:06:08;37.90;99.90
19972;DHT22;10147;16.402;102.848;2023-05-02T07:08:38;37.80;99.90
19972;DHT22;10147;16.402;102.848;2023-05-02T07:11:08;38.10;99.90
19972;DHT22;10147;16.402;102.848;2023-05-02T07:13:38;38.20;99.90
19972;DHT22;10147;16.402;102.848;2023-05-02T07:16:07;38.10;99.90
19972;DHT22;10147;16.402;102.848;2023-05-02T07:18:38;38.20;99.90
19972;DHT22;10147;16.402;102.848;2023-05-02T07:21:07;38.40;99.90
19972;DHT22;10147;16.402;102.848;2023-05-02T07:23:37;38.40;99.90
19972;DHT22;10147;16.402;102.848;2023-05-02T07:26:07;38.20;99.70
19972;DHT22;10147;16.402;102.848;2023-05-02T07:28:37;38.30;99.90
19972;DHT22;10147;16.402;102.848;2023-05-02T07:31:06;38.40;99.90
19972;DHT22;10147;16.402;102.848;2023-05-02T07:33:36;38.40;98.90
19972;DHT22;10147;16.402;102.848;2023-05-02T07:36:06;38.50;99.30
19972;DHT22;10147;16.402;102.848;2023-05-02T07:38:36;38.50;98.80
19972;DHT22;10147;16.402;102.848;2023-05-02T07:41:08;38.50;99.30
19972;DHT22;10147;16.402;102.848;2023-05-02T07:43:38;38.50;97.70
19972;DHT22;10147;16.402;102.848;2023-05-02T07:46:07;38.40;98.30
19972;DHT22;10147;16.402;102.848;2023-05-02T07:48:37;38.20;97.90
19972;DHT22;10147;16.402;102.848;2023-05-02T07:51:09;38.00;99.00
19972;DHT22;10147;16.402;102.848;2023-05-02T07:53:40;37.80;97.90
19972;DHT22;10147;16.402;102.848;2023-05-02T07:56:09;37.60;98.10
19972;DHT22;10147;16.402;102.848;2023-05-02T07:58:41;37.60;97.70
19972;DHT22;10147;16.402;102.848;2023-05-02T08:01:11;37.90;97.20
19972;DHT22;10147;16.402;102.848;2023-05-02T08:03:42;38.20;98.10
19972;DHT22;10147;16.402;102.848;2023-05-02T08:06:11;38.00;97.40
19972;DHT22;10147;16.402;102.848;2023-05-02T08:08:42;38.10;95.70
19972;DHT22;10147;16.402;102.848;2023-05-02T08:11:12;38.00;96.40
19972;DHT22;10147;16.402;102.848;2023-05-02T08:13:42;38.00;97.80
19972;DHT22;10147;16.402;102.848;2023-05-02T08:16:13;38.10;97.30
19972;DHT22;10147;16.402;102.848;2023-05-02T08:18:43;38.10;96.50
19972;DHT22;10147;16.402;102.848;2023-05-02T08:21:13;38.10;96.70
19972;DHT22;10147;16.402;102.848;2023-05-02T08:23:43;37.90;97.20
19972;DHT22;10147;16.402;102.848;2023-05-02T08:26:14;37.80;96.20
19972;DHT22;10147;16.402;102.848;2023-05-02T08:28:47;37.70;96.50
19972;DHT22;10147;16.402;102.848;2023-05-02T08:31:17;37.70;96.30
19972;DHT22;10147;16.402;102.848;2023-05-02T08:33:47;37.80;96.40
19972;DHT22;10147;16.402;102.848;2023-05-02T08:36:17;37.80;97.00
19972;DHT22;10147;16.402;102.848;2023-05-02T08:38:51;37.80;96.50
19972;DHT22;10147;16.402;102.848;2023-05-02T08:41:21;37.70;95.80
19972;DHT22;10147;16.402;102.848;2023-05-02T08:43:52;37.60;97.20
19972;DHT22;10147;16.402;102.848;2023-05-02T08:46:22;37.50;96.50
19972;DHT22;10147;16.402;102.848;2023-05-02T08:48:53;37.50;96.80
19972;DHT22;10147;16.402;102.848;2023-05-02T08:51:27;37.40;96.10
19972;DHT22;10147;16.402;102.848;2023-05-02T08:54:02;37.40;98.80
19972;DHT22;10147;16.402;102.848;2023-05-02T08:56:32;37.60;97.80
19972;DHT22;10147;16.402;102.848;2023-05-02T08:59:02;37.50;96.10
19972;DHT22;10147;16.402;102.848;2023-05-02T09:01:32;37.40;97.40
19972;DHT22;10147;16.402;102.848;2023-05-02T09:04:04;37.40;97.00
19972;DHT22;10147;16.402;102.848;2023-05-02T09:06:35;37.30;96.70
19972;DHT22;10147;16.402;102.848;2023-05-02T09:09:06;37.30;97.10
19972;DHT22;10147;16.402;102.848;2023-05-02T09:11:37;37.30;96.20
19972;DHT22;10147;16.402;102.848;2023-05-02T09:14:14;37.20;96.10
19972;DHT22;10147;16.402;102.848;2023-05-02T09:16:45;37.20;97.00
19972;DHT22;10147;16.402;102.848;2023-05-02T09:19:25;37.20;97.10
19972;DHT22;10147;16.402;102.848;2023-05-02T09:21:59;37.10;97.30
19972;DHT22;10147;16.402;102.848;2023-05-02T09:24:29;37.00;97.90
19972;DHT22;10147;16.402;102.848;2023-05-02T09:27:02;36.90;97.40
19972;DHT22;10147;16.402;102.848;2023-05-02T09:29:33;36.90;97.40
19972;DHT22;10147;16.402;102.848;2023-05-02T09:32:07;36.80;97.60
19972;DHT22;10147;16.402;102.848;2023-05-02T09:34:36;36.80;97.20
19972;DHT22;10147;16.402;102.848;2023-05-02T09:37:08;36.60;97.30
19972;DHT22;10147;16.402;102.848;2023-05-02T09:40:05;36.60;97.00
19972;DHT22;10147;16.402;102.848;2023-05-02T09:42:35;36.50;97.10
19972;DHT22;10147;16.402;102.848;2023-05-02T09:45:05;36.60;97.30
19972;DHT22;10147;16.402;102.848;2023-05-02T09:47:36;36.60;97.20
19972;DHT22;10147;16.402;102.848;2023-05-02T09:50:06;36.60;97.30
19972;DHT22;10147;16.402;102.848;2023-05-02T09:52:37;36.60;98.90
19972;DHT22;10147;16.402;102.848;2023-05-02T09:55:25;36.60;97.90
19972;DHT22;10147;16.402;102.848;2023-05-02T09:57:55;36.40;98.10
19972;DHT22;10147;16.402;102.848;2023-05-02T10:00:44;36.40;98.00
19972;DHT22;10147;16.402;102.848;2023-05-02T10:03:16;36.30;98.70
19972;DHT22;10147;16.402;102.848;2023-05-02T10:05:47;36.30;98.90
19972;DHT22;10147;16.402;102.848;2023-05-02T10:08:19;36.20;99.60
19972;DHT22;10147;16.402;102.848;2023-05-02T10:10:54;36.00;99.10
19972;DHT22;10147;16.402;102.848;2023-05-02T10:13:26;36.00;99.60
19972;DHT22;10147;16.402;102.848;2023-05-02T10:16:02;36.00;99.90
19972;DHT22;10147;16.402;102.848;2023-05-02T10:18:45;36.00;99.90
19972;DHT22;10147;16.402;102.848;2023-05-02T10:21:25;35.90;99.80
19972;DHT22;10147;16.402;102.848;2023-05-02T10:23:59;35.90;99.90
19972;DHT22;10147;16.402;102.848;2023-05-02T10:26:30;35.80;99.90
19972;DHT22;10147;16.402;102.848;2023-05-02T10:29:18;35.80;99.90
19972;DHT22;10147;16.402;102.848;2023-05-02T10:31:49;35.70;99.90
19972;DHT22;10147;16.402;102.848;2023-05-02T10:34:19;35.60;99.90
19972;DHT22;10147;16.402;102.848;2023-05-02T10:36:50;35.60;99.90
19972;DHT22;10147;16.402;102.848;2023-05-02T10:39:20;35.50;99.90
19972;DHT22;10147;16.402;102.848;2023-05-02T10:41:54;35.50;99.90
19972;DHT22;10147;16.402;102.848;2023-05-02T10:44:32;35.50;99.90
19972;DHT22;10147;16.402;102.848;2023-05-02T10:47:23;35.40;99.90
19972;DHT22;10147;16.402;102.848;2023-05-02T10:50:01;35.40;99.90
19972;DHT22;10147;16.402;102.848;2023-05-02T10:52:37;35.30;99.90
19972;DHT22;10147;16.402;102.848;2023-05-02T10:55:20;35.30;99.90
19972;DHT22;10147;16.402;102.848;2023-05-02T10:58:19;35.30;99.90
19972;DHT22;10147;16.402;102.848;2023-05-02T11:00:50;35.20;99.90
19972;DHT22;10147;16.402;102.848;2023-05-02T11:06:35;35.20;99.90
19972;DHT22;10147;16.402;102.848;2023-05-02T11:09:31;35.00;99.90
19972;DHT22;10147;16.402;102.848;2023-05-02T11:12:02;35.00;99.90
19972;DHT22;10147;16.402;102.848;2023-05-02T11:14:43;35.10;99.90
19972;DHT22;10147;16.402;102.848;2023-05-02T11:17:13;35.10;99.90
19972;DHT22;10147;16.402;102.848;2023-05-02T11:20:18;35.00;99.90
19972;DHT22;10147;16.402;102.848;2023-05-02T11:22:49;34.90;99.90
19972;DHT22;10147;16.402;102.848;2023-05-02T11:25:30;34.80;99.90
19972;DHT22;10147;16.402;102.848;2023-05-02T11:28:01;34.60;99.90
19972;DHT22;10147;16.402;102.848;2023-05-02T11:30:39;34.70;99.90
19972;DHT22;10147;16.402;102.848;2023-05-02T11:33:14;34.80;99.90
19972;DHT22;10147;16.402;102.848;2023-05-02T11:35:46;34.60;99.90
19972;DHT22;10147;16.402;102.848;2023-05-02T11:38:18;34.40;99.90
19972;DHT22;10147;16.402;102.848;2023-05-02T11:40:51;34.40;99.90
19972;DHT22;10147;16.402;102.848;2023-05-02T11:43:22;34.60;99.90
19972;DHT22;10147;16.402;102.848;2023-05-02T11:45:55;34.60;99.90
19972;DHT22;10147;16.402;102.848;2023-05-02T11:48:28;34.60;99.90
19972;DHT22;10147;16.402;102.848;2023-05-02T11:51:00;34.60;99.90
19972;DHT22;10147;16.402;102.848;2023-05-02T11:53:39;34.60;99.90
19972;DHT22;10147;16.402;102.848;2023-05-02T11:56:09;34.30;99.90
19972;DHT22;10147;16.402;102.848;2023-05-02T11:58:39;34.30;99.90
19972;DHT22;10147;16.402;102.848;2023-05-02T12:01:14;34.30;99.90
19972;DHT22;10147;16.402;102.848;2023-05-02T12:03:44;34.30;99.90
19972;DHT22;10147;16.402;102.848;2023-05-02T12:06:17;34.30;99.90
19972;DHT22;10147;16.402;102.848;2023-05-02T12:08:48;34.30;99.90
19972;DHT22;10147;16.402;102.848;2023-05-02T12:11:17;34.30;99.90
19972;DHT22;10147;16.402;102.848;2023-05-02T12:13:48;34.10;99.90
19972;DHT22;10147;16.402;102.848;2023-05-02T12:16:18;33.90;99.90
19972;DHT22;10147;16.402;102.848;2023-05-02T12:18:48;33.60;99.90
19972;DHT22;10147;16.402;102.848;2023-05-02T12:21:19;33.50;99.90
19972;DHT22;10147;16.402;102.848;2023-05-02T12:23:49;33.60;99.90
19972;DHT22;10147;16.402;102.848;2023-05-02T12:26:23;33.60;99.90
19972;DHT22;10147;16.402;102.848;2023-05-02T12:29:01;33.40;99.90
19972;DHT22;10147;16.402;102.848;2023-05-02T12:31:31;33.40;99.90
19972;DHT22;10147;16.402;102.848;2023-05-02T12:34:01;33.40;99.90
19972;DHT22;10147;16.402;102.848;2023-05-02T12:36:30;33.30;99.90
19972;DHT22;10147;16.402;102.848;2023-05-02T12:39:02;33.30;99.90
19972;DHT22;10147;16.402;102.848;2023-05-02T12:41:34;33.30;99.90
19972;DHT22;10147;16.402;102.848;2023-05-02T12:44:05;33.30;99.90
19972;DHT22;10147;16.402;102.848;2023-05-02T12:46:35;33.50;99.90
19972;DHT22;10147;16.402;102.848;2023-05-02T12:49:09;33.60;99.90
19972;DHT22;10147;16.402;102.848;2023-05-02T12:51:52;33.50;99.90
19972;DHT22;10147;16.402;102.848;2023-05-02T12:54:29;33.40;99.90
19972;DHT22;10147;16.402;102.848;2023-05-02T12:56:59;33.40;99.90
19972;DHT22;10147;16.402;102.848;2023-05-02T12:59:31;33.40;99.90
19972;DHT22;10147;16.402;102.848;2023-05-02T13:02:01;33.10;99.90
19972;DHT22;10147;16.402;102.848;2023-05-02T13:04:39;32.90;99.90
19972;DHT22;10147;16.402;102.848;2023-05-02T13:07:10;33.00;99.90
19972;DHT22;10147;16.402;102.848;2023-05-02T13:09:40;32.90;99.90
19972;DHT22;10147;16.402;102.848;2023-05-02T13:12:10;32.80;99.90
19972;DHT22;10147;16.402;102.848;2023-05-02T13:14:39;32.90;99.90
19972;DHT22;10147;16.402;102.848;2023-05-02T13:17:09;33.10;99.90
19972;DHT22;10147;16.402;102.848;2023-05-02T13:19:39;33.00;99.90
19972;DHT22;10147;16.402;102.848;2023-05-02T13:22:20;32.60;99.90
19972;DHT22;10147;16.402;102.848;2023-05-02T13:24:51;32.30;99.90
19972;DHT22;10147;16.402;102.848;2023-05-02T13:27:24;32.30;99.90
19972;DHT22;10147;16.402;102.848;2023-05-02T13:29:54;32.80;99.90
19972;DHT22;10147;16.402;102.848;2023-05-02T13:32:24;32.70;99.90
19972;DHT22;10147;16.402;102.848;2023-05-02T13:34:54;32.70;99.90
19972;DHT22;10147;16.402;102.848;2023-05-02T13:37:24;32.90;99.90
19972;DHT22;10147;16.402;102.848;2023-05-02T13:39:54;32.90;99.90
19972;DHT22;10147;16.402;102.848;2023-05-02T13:42:24;32.90;99.90
19972;DHT22;10147;16.402;102.848;2023-05-02T13:44:54;32.90;99.90
19972;DHT22;10147;16.402;102.848;2023-05-02T13:47:24;32.70;99.90
19972;DHT22;10147;16.402;102.848;2023-05-02T13:49:54;32.70;99.90
19972;DHT22;10147;16.402;102.848;2023-05-02T13:52:24;32.70;99.90
19972;DHT22;10147;16.402;102.848;2023-05-02T13:54:54;32.70;99.90
19972;DHT22;10147;16.402;102.848;2023-05-02T13:57:24;32.60;99.90
19972;DHT22;10147;16.402;102.848;2023-05-02T13:59:54;32.60;99.90
19972;DHT22;10147;16.402;102.848;2023-05-02T14:02:23;32.70;99.90
19972;DHT22;10147;16.402;102.848;2023-05-02T14:04:54;32.60;99.90
19972;DHT22;10147;16.402;102.848;2023-05-02T14:07:24;32.60;99.90
19972;DHT22;10147;16.402;102.848;2023-05-02T14:09:54;32.60;99.90
19972;DHT22;10147;16.402;102.848;2023-05-02T14:12:24;32.60;99.90
19972;DHT22;10147;16.402;102.848;2023-05-02T14:14:54;32.60;99.90
19972;DHT22;10147;16.402;102.848;2023-05-02T14:17:23;32.60;99.90
19972;DHT22;10147;16.402;102.848;2023-05-02T14:19:54;32.50;99.90
19972;DHT22;10147;16.402;102.848;2023-05-02T14:22:24;32.40;99.90
19972;DHT22;10147;16.402;102.848;2023-05-02T14:24:54;32.40;99.90
19972;DHT22;10147;16.402;102.848;2023-05-02T14:27:24;32.40;99.90
19972;DHT22;10147;16.402;102.848;2023-05-02T14:29:55;32.40;99.90
19972;DHT22;10147;16.402;102.848;2023-05-02T14:32:25;32.30;99.90
19972;DHT22;10147;16.402;102.848;2023-05-02T14:34:55;32.40;99.90
19972;DHT22;10147;16.402;102.848;2023-05-02T14:37:25;32.30;99.90
19972;DHT22;10147;16.402;102.848;2023-05-02T14:39:55;32.30;99.90
19972;DHT22;10147;16.402;102.848;2023-05-02T14:42:27;32.00;99.90
19972;DHT22;10147;16.402;102.848;2023-05-02T14:44:57;31.60;99.90
19972;DHT22;10147;16.402;102.848;2023-05-02T14:47:31;31.70;99.90
19972;DHT22;10147;16.402;102.848;2023-05-02T14:50:02;31.90;99.90
19972;DHT22;10147;16.402;102.848;2023-05-02T14:52:34;31.90;99.90
19972;DHT22;10147;16.402;102.848;2023-05-02T14:55:04;32.00;99.90
19972;DHT22;10147;16.402;102.848;2023-05-02T14:57:34;32.00;99.90
19972;DHT22;10147;16.402;102.848;2023-05-02T15:00:05;31.90;99.90
19972;DHT22;10147;16.402;102.848;2023-05-02T15:02:45;31.90;99.90
19972;DHT22;10147;16.402;102.848;2023-05-02T15:05:15;31.90;99.90
19972;DHT22;10147;16.402;102.848;2023-05-02T15:07:45;31.80;99.90
19972;DHT22;10147;16.402;102.848;2023-05-02T15:10:14;31.90;99.90
19972;DHT22;10147;16.402;102.848;2023-05-02T15:12:44;31.90;99.90
19972;DHT22;10147;16.402;102.848;2023-05-02T15:15:19;31.90;99.90
19972;DHT22;10147;16.402;102.848;2023-05-02T15:17:53;31.90;99.90
19972;DHT22;10147;16.402;102.848;2023-05-02T15:20:23;31.90;99.90
19972;DHT22;10147;16.402;102.848;2023-05-02T15:22:59;31.80;99.90
19972;DHT22;10147;16.402;102.848;2023-05-02T15:25:31;31.80;99.90
19972;DHT22;10147;16.402;102.848;2023-05-02T15:28:01;31.60;99.90
19972;DHT22;10147;16.402;102.848;2023-05-02T15:30:32;31.50;99.90
19972;DHT22;10147;16.402;102.848;2023-05-02T15:33:03;31.50;99.90
19972;DHT22;10147;16.402;102.848;2023-05-02T15:35:33;31.60;99.90
19972;DHT22;10147;16.402;102.848;2023-05-02T15:38:05;31.60;99.90
19972;DHT22;10147;16.402;102.848;2023-05-02T15:40:37;31.60;99.90
19972;DHT22;10147;16.402;102.848;2023-05-02T15:43:07;31.50;99.90
19972;DHT22;10147;16.402;102.848;2023-05-02T15:45:37;31.60;99.90
19972;DHT22;10147;16.402;102.848;2023-05-02T15:48:08;31.50;99.90
19972;DHT22;10147;16.402;102.848;2023-05-02T15:50:38;31.60;99.90
19972;DHT22;10147;16.402;102.848;2023-05-02T15:53:08;31.60;99.90